sensor_id;sensor_type;location;lat;lon;timestamp;pressure;altitude;pressure_sealevel;temperature;humidity
6034;BME280;3045;43.226;27.858;2022-10-17T00:00:53;149229.72;;;12.69;100.00
6034;BME280;3045;43.226;27.858;2022-10-17T00:03:20;149230.97;;;12.70;100.00
6034;BME280;3045;43.226;27.858;2022-10-17T00:05:48;149200.59;;;12.58;100.00
6034;BME280;3045;43.226;27.858;2022-10-17T00:08:16;149213.25;;;12.63;100.00
6034;BME280;3045;43.226;27.858;2022-10-17T00:10:43;149185.44;;;12.52;100.00
6034;BME280;3045;43.226;27.858;2022-10-17T00:13:11;149220.84;;;12.66;100.00
6034;BME280;3045;43.226;27.858;2022-10-17T00:15:42;149208.19;;;12.61;100.00
6034;BME280;3045;43.226;27.858;2022-10-17T00:18:09;149138.56;;;12.33;100.00
6034;BME280;3045;43.226;27.858;2022-10-17T00:20:36;149200.59;;;12.58;100.00
6034;BME280;3045;43.226;27.858;2022-10-17T00:23:02;149180.34;;;12.50;100.00
6034;BME280;3045;43.226;27.858;2022-10-17T00:25:29;149191.75;;;12.54;100.00
6034;BME280;3045;43.226;27.858;2022-10-17T00:27:56;149177.81;;;12.49;100.00
6034;BME280;3045;43.226;27.858;2022-10-17T00:30:23;149158.81;;;12.41;100.00
6034;BME280;3045;43.226;27.858;2022-10-17T00:32:51;149168.94;;;12.45;100.00
6034;BME280;3045;43.226;27.858;2022-10-17T00:35:18;149177.81;;;12.49;100.00
6034;BME280;3045;43.226;27.858;2022-10-17T00:37:45;149142.41;;;12.34;100.00
6034;BME280;3045;43.226;27.858;2022-10-17T00:40:12;149167.69;;;12.45;100.00
6034;BME280;3045;43.226;27.858;2022-10-17T00:42:42;149143.63;;;12.35;100.00
6034;BME280;3045;43.226;27.858;2022-10-17T00:45:16;149167.69;;;12.45;100.00
6034;BME280;3045;43.226;27.858;2022-10-17T00:47:46;149170.22;;;12.46;100.00
6034;BME280;3045;43.226;27.858;2022-10-17T00:50:16;149215.81;;;12.64;100.00
6034;BME280;3045;43.226;27.858;2022-10-17T00:52:45;149251.22;;;12.78;100.00
6034;BME280;3045;43.226;27.858;2022-10-17T00:55:17;149249.97;;;12.77;100.00
6034;BME280;3045;43.226;27.858;2022-10-17T00:57:45;149198.06;;;12.57;100.00
6034;BME280;3045;43.226;27.858;2022-10-17T01:00:14;149262.63;;;12.82;100.00
6034;BME280;3045;43.226;27.858;2022-10-17T01:02:41;149261.34;;;12.82;100.00
6034;BME280;3045;43.226;27.858;2022-10-17T01:05:09;149271.50;;;12.86;100.00
6034;BME280;3045;43.226;27.858;2022-10-17T01:07:38;149267.72;;;12.85;100.00
6034;BME280;3045;43.226;27.858;2022-10-17T01:10:07;149262.63;;;12.82;100.00
6034;BME280;3045;43.226;27.858;2022-10-17T01:12:46;149285.44;;;12.92;100.00
6034;BME280;3045;43.226;27.858;2022-10-17T01:15:21;149304.41;;;12.99;100.00
6034;BME280;3045;43.226;27.858;2022-10-17T01:17:58;149296.84;;;12.96;100.00
6034;BME280;3045;43.226;27.858;2022-10-17T01:21:02;149331.03;;;13.10;100.00
6034;BME280;3045;43.226;27.858;2022-10-17T01:26:55;149332.38;;;13.10;100.00
6034;BME280;3045;43.226;27.858;2022-10-17T01:32:34;149305.69;;;13.00;100.00
6034;BME280;3045;43.226;27.858;2022-10-17T01:35:07;149295.56;;;12.96;100.00
6034;BME280;3045;43.226;27.858;2022-10-17T01:37:40;149301.91;;;12.98;100.00
6034;BME280;3045;43.226;27.858;2022-10-17T01:40:13;149309.50;;;13.01;100.00
6034;BME280;3045;43.226;27.858;2022-10-17T01:42:47;149327.22;;;13.08;100.00
6034;BME280;3045;43.226;27.858;2022-10-17T01:45:20;149300.66;;;12.98;100.00
6034;BME280;3045;43.226;27.858;2022-10-17T01:47:51;149285.44;;;12.92;99.46
6034;BME280;3045;43.226;27.858;2022-10-17T01:50:23;149323.44;;;13.07;97.90
6034;BME280;3045;43.226;27.858;2022-10-17T01:52:54;149324.69;;;13.07;98.31
6034;BME280;3045;43.226;27.858;2022-10-17T01:55:27;149300.66;;;12.98;97.65
6034;BME280;3045;43.226;27.858;2022-10-17T01:58:00;149249.97;;;12.77;98.57
6034;BME280;3045;43.226;27.858;2022-10-17T02:00:30;149286.72;;;12.92;98.31
6034;BME280;3045;43.226;27.858;2022-10-17T02:03:01;149276.56;;;12.88;98.33
6034;BME280;3045;43.226;27.858;2022-10-17T02:05:32;149319.63;;;13.05;97.97
6034;BME280;3045;43.226;27.858;2022-10-17T02:08:01;149308.25;;;13.01;98.21
6034;BME280;3045;43.226;27.858;2022-10-17T02:10:31;149306.97;;;13.00;98.59
6034;BME280;3045;43.226;27.858;2022-10-17T02:13:05;149271.50;;;12.86;99.05
6034;BME280;3045;43.226;27.858;2022-10-17T02:15:53;149281.63;;;12.90;99.41
6034;BME280;3045;43.226;27.858;2022-10-17T02:18:41;149301.91;;;12.98;98.26
6034;BME280;3045;43.226;27.858;2022-10-17T02:21:19;149267.72;;;12.85;98.80
6034;BME280;3045;43.226;27.858;2022-10-17T02:23:52;149269.00;;;12.85;99.00
6034;BME280;3045;43.226;27.858;2022-10-17T02:26:25;149261.34;;;12.82;99.66
6034;BME280;3045;43.226;27.858;2022-10-17T02:29:02;149263.91;;;12.83;100.00
6034;BME280;3045;43.226;27.858;2022-10-17T02:31:36;149242.38;;;12.74;100.00
6034;BME280;3045;43.226;27.858;2022-10-17T02:34:07;149252.50;;;12.78;98.99
6034;BME280;3045;43.226;27.858;2022-10-17T02:36:37;149261.34;;;12.82;99.72
6034;BME280;3045;43.226;27.858;2022-10-17T02:39:07;149306.97;;;13.00;98.99
6034;BME280;3045;43.226;27.858;2022-10-17T02:41:36;149280.41;;;12.90;97.87
6034;BME280;3045;43.226;27.858;2022-10-17T02:44:05;149314.53;;;13.03;97.79
6034;BME280;3045;43.226;27.858;2022-10-17T02:46:33;149317.09;;;13.04;98.33
6034;BME280;3045;43.226;27.858;2022-10-17T02:49:07;149309.50;;;13.01;99.40
6034;BME280;3045;43.226;27.858;2022-10-17T02:51:45;149294.28;;;12.95;100.00
6034;BME280;3045;43.226;27.858;2022-10-17T02:54:17;149286.72;;;12.92;100.00
6034;BME280;3045;43.226;27.858;2022-10-17T02:56:50;149306.97;;;13.00;100.00
6034;BME280;3045;43.226;27.858;2022-10-17T02:59:21;149306.97;;;13.00;100.00
6034;BME280;3045;43.226;27.858;2022-10-17T03:01:51;149306.97;;;13.00;100.00
6034;BME280;3045;43.226;27.858;2022-10-17T03:04:19;149332.38;;;13.10;100.00
6034;BME280;3045;43.226;27.858;2022-10-17T03:06:47;149296.84;;;12.96;100.00
6034;BME280;3045;43.226;27.858;2022-10-17T03:09:14;149299.38;;;12.97;100.00
6034;BME280;3045;43.226;27.858;2022-10-17T03:11:41;149256.31;;;12.80;100.00
6034;BME280;3045;43.226;27.858;2022-10-17T03:14:08;149282.88;;;12.91;100.00
6034;BME280;3045;43.226;27.858;2022-10-17T03:16:35;149261.34;;;12.82;100.00
6034;BME280;3045;43.226;27.858;2022-10-17T03:19:02;149266.44;;;12.84;100.00
6034;BME280;3045;43.226;27.858;2022-10-17T03:21:30;149265.19;;;12.83;100.00
6034;BME280;3045;43.226;27.858;2022-10-17T03:23:57;149280.41;;;12.90;100.00
6034;BME280;3045;43.226;27.858;2022-10-17T03:26:27;149258.88;;;12.81;100.00
6034;BME280;3045;43.226;27.858;2022-10-17T03:28:54;149238.59;;;12.73;100.00
6034;BME280;3045;43.226;27.858;2022-10-17T03:31:22;149287.97;;;12.93;100.00
6034;BME280;3045;43.226;27.858;2022-10-17T03:33:49;149299.38;;;12.97;100.00
6034;BME280;3045;43.226;27.858;2022-10-17T03:36:17;149308.25;;;13.01;100.00
6034;BME280;3045;43.226;27.858;2022-10-17T03:38:45;149294.28;;;12.95;100.00
6034;BME280;3045;43.226;27.858;2022-10-17T03:41:13;149280.41;;;12.90;100.00
6034;BME280;3045;43.226;27.858;2022-10-17T03:43:40;149323.44;;;13.07;100.00
6034;BME280;3045;43.226;27.858;2022-10-17T03:46:07;149339.94;;;13.13;100.00
6034;BME280;3045;43.226;27.858;2022-10-17T03:48:34;149371.63;;;13.26;100.00
6034;BME280;3045;43.226;27.858;2022-10-17T03:51:02;149372.88;;;13.26;100.00
6034;BME280;3045;43.226;27.858;2022-10-17T03:53:30;149366.53;;;13.24;100.00
6034;BME280;3045;43.226;27.858;2022-10-17T03:56:08;149405.81;;;13.40;100.00
6034;BME280;3045;43.226;27.858;2022-10-17T03:58:35;149391.88;;;13.34;100.00
6034;BME280;3045;43.226;27.858;2022-10-17T04:01:03;149418.50;;;13.45;100.00
6034;BME280;3045;43.226;27.858;2022-10-17T04:03:30;149403.28;;;13.39;100.00
6034;BME280;3045;43.226;27.858;2022-10-17T04:05:57;149369.06;;;13.25;100.00
6034;BME280;3045;43.226;27.858;2022-10-17T04:08:24;149388.06;;;13.33;100.00
6034;BME280;3045;43.226;27.858;2022-10-17T04:10:51;149350.06;;;13.17;100.00
6034;BME280;3045;43.226;27.858;2022-10-17T04:13:19;149384.28;;;13.31;100.00
6034;BME280;3045;43.226;27.858;2022-10-17T04:15:53;149371.63;;;13.26;100.00
6034;BME280;3045;43.226;27.858;2022-10-17T04:18:20;149341.22;;;13.14;100.00
6034;BME280;3045;43.226;27.858;2022-10-17T04:20:47;149249.97;;;12.77;100.00
6034;BME280;3045;43.226;27.858;2022-10-17T04:23:14;149347.53;;;13.16;100.00
6034;BME280;3045;43.226;27.858;2022-10-17T04:25:41;149322.19;;;13.06;100.00
6034;BME280;3045;43.226;27.858;2022-10-17T04:28:08;149312.06;;;13.02;100.00
6034;BME280;3045;43.226;27.858;2022-10-17T04:30:36;149281.63;;;12.90;100.00
6034;BME280;3045;43.226;27.858;2022-10-17T04:33:03;149334.84;;;13.11;100.00
6034;BME280;3045;43.226;27.858;2022-10-17T04:35:31;149352.63;;;13.18;100.00
6034;BME280;3045;43.226;27.858;2022-10-17T04:37:58;149350.06;;;13.17;100.00
6034;BME280;3045;43.226;27.858;2022-10-17T04:40:24;149333.63;;;13.11;100.00
6034;BME280;3045;43.226;27.858;2022-10-17T04:42:52;149322.19;;;13.06;100.00
6034;BME280;3045;43.226;27.858;2022-10-17T04:45:21;149244.91;;;12.75;100.00
6034;BME280;3045;43.226;27.858;2022-10-17T04:47:49;149300.66;;;12.98;100.00
6034;BME280;3045;43.226;27.858;2022-10-17T04:50:16;149300.66;;;12.98;100.00
6034;BME280;3045;43.226;27.858;2022-10-17T04:52:43;149309.50;;;13.01;100.00
6034;BME280;3045;43.226;27.858;2022-10-17T04:55:09;149301.91;;;12.98;100.00
6034;BME280;3045;43.226;27.858;2022-10-17T04:57:36;149320.91;;;13.06;100.00
6034;BME280;3045;43.226;27.858;2022-10-17T05:00:04;149289.25;;;12.93;100.00
6034;BME280;3045;43.226;27.858;2022-10-17T05:02:31;149329.78;;;13.09;100.00
6034;BME280;3045;43.226;27.858;2022-10-17T05:04:59;149347.53;;;13.16;100.00
6034;BME280;3045;43.226;27.858;2022-10-17T05:07:26;149360.22;;;13.21;100.00
6034;BME280;3045;43.226;27.858;2022-10-17T05:09:53;149381.75;;;13.30;100.00
6034;BME280;3045;43.226;27.858;2022-10-17T05:12:20;149388.06;;;13.33;100.00
6034;BME280;3045;43.226;27.858;2022-10-17T05:14:47;149405.81;;;13.40;100.00
6034;BME280;3045;43.226;27.858;2022-10-17T05:17:14;149408.38;;;13.41;100.00
6034;BME280;3045;43.226;27.858;2022-10-17T05:19:41;149446.34;;;13.56;100.00
6034;BME280;3045;43.226;27.858;2022-10-17T05:22:09;149459.03;;;13.61;100.00
6034;BME280;3045;43.226;27.858;2022-10-17T05:24:36;149451.41;;;13.58;100.00
6034;BME280;3045;43.226;27.858;2022-10-17T05:27:03;149451.41;;;13.58;100.00
6034;BME280;3045;43.226;27.858;2022-10-17T05:29:32;149464.09;;;13.63;100.00
6034;BME280;3045;43.226;27.858;2022-10-17T05:31:59;149471.72;;;13.66;100.00
6034;BME280;3045;43.226;27.858;2022-10-17T05:34:26;149505.88;;;13.80;100.00
6034;BME280;3045;43.226;27.858;2022-10-17T05:36:53;149483.13;;;13.70;100.00
6034;BME280;3045;43.226;27.858;2022-10-17T05:39:21;149423.53;;;13.47;100.00
6034;BME280;3045;43.226;27.858;2022-10-17T05:41:48;149557.84;;;14.00;100.00
6034;BME280;3045;43.226;27.858;2022-10-17T05:44:16;149575.63;;;14.07;100.00
6034;BME280;3045;43.226;27.858;2022-10-17T05:46:43;149595.91;;;14.15;100.00
6034;BME280;3045;43.226;27.858;2022-10-17T05:49:11;149611.09;;;14.22;100.00
6034;BME280;3045;43.226;27.858;2022-10-17T05:51:38;149621.28;;;14.26;100.00
6034;BME280;3045;43.226;27.858;2022-10-17T05:54:05;149656.78;;;14.40;100.00
6034;BME280;3045;43.226;27.858;2022-10-17T05:56:34;149664.38;;;14.43;100.00
6034;BME280;3045;43.226;27.858;2022-10-17T05:59:02;149672.03;;;14.46;100.00
6034;BME280;3045;43.226;27.858;2022-10-17T06:01:29;149715.13;;;14.63;100.00
6034;BME280;3045;43.226;27.858;2022-10-17T06:03:56;149763.31;;;14.82;100.00
6034;BME280;3045;43.226;27.858;2022-10-17T06:06:22;149803.88;;;14.98;100.00
6034;BME280;3045;43.226;27.858;2022-10-17T06:08:51;149808.97;;;15.00;100.00
6034;BME280;3045;43.226;27.858;2022-10-17T06:11:18;149844.50;;;15.15;100.00
6034;BME280;3045;43.226;27.858;2022-10-17T06:13:46;149857.16;;;15.20;100.00
6034;BME280;3045;43.226;27.858;2022-10-17T06:16:13;149845.75;;;15.15;100.00
6034;BME280;3045;43.226;27.858;2022-10-17T06:18:40;149944.75;;;15.54;100.00
6034;BME280;3045;43.226;27.858;2022-10-17T06:21:09;149963.78;;;15.62;100.00
6034;BME280;3045;43.226;27.858;2022-10-17T06:23:36;150046.31;;;15.95;100.00
6034;BME280;3045;43.226;27.858;2022-10-17T06:26:04;150093.25;;;16.14;100.00
6034;BME280;3045;43.226;27.858;2022-10-17T06:28:32;150180.88;;;16.49;100.00
6034;BME280;3045;43.226;27.858;2022-10-17T06:31:05;150272.34;;;16.85;100.00
6034;BME280;3045;43.226;27.858;2022-10-17T06:33:32;150320.63;;;17.04;100.00
6034;BME280;3045;43.226;27.858;2022-10-17T06:36:00;150426.09;;;17.46;100.00
6034;BME280;3045;43.226;27.858;2022-10-17T06:38:27;150545.63;;;17.94;100.00
6034;BME280;3045;43.226;27.858;2022-10-17T06:41:01;150698.22;;;18.54;100.00
6034;BME280;3045;43.226;27.858;2022-10-17T06:43:29;150792.38;;;18.92;99.56
6034;BME280;3045;43.226;27.858;2022-10-17T06:45:56;150915.75;;;19.41;95.42
6034;BME280;3045;43.226;27.858;2022-10-17T06:48:24;151024.00;;;19.84;94.84
6034;BME280;3045;43.226;27.858;2022-10-17T06:50:51;151110.59;;;20.18;88.53
6034;BME280;3045;43.226;27.858;2022-10-17T06:53:18;151194.66;;;20.51;87.17
6034;BME280;3045;43.226;27.858;2022-10-17T06:55:50;151241.81;;;20.70;84.79
6034;BME280;3045;43.226;27.858;2022-10-17T06:58:17;151315.69;;;21.00;82.28
6034;BME280;3045;43.226;27.858;2022-10-17T07:00:44;151406.16;;;21.35;81.05
6034;BME280;3045;43.226;27.858;2022-10-17T07:03:11;151492.84;;;21.70;77.62
6034;BME280;3045;43.226;27.858;2022-10-17T07:05:39;151587.22;;;22.07;75.56
6034;BME280;3045;43.226;27.858;2022-10-17T07:08:07;151487.75;;;21.68;76.86
6034;BME280;3045;43.226;27.858;2022-10-17T07:10:34;151628.06;;;22.23;75.24
6034;BME280;3045;43.226;27.858;2022-10-17T07:13:08;151716.00;;;22.58;75.28
6034;BME280;3045;43.226;27.858;2022-10-17T07:15:35;151645.88;;;22.30;77.45
6034;BME280;3045;43.226;27.858;2022-10-17T07:18:03;151668.84;;;22.40;76.70
6034;BME280;3045;43.226;27.858;2022-10-17T07:20:30;151661.16;;;22.37;75.13
6034;BME280;3045;43.226;27.858;2022-10-17T07:22:59;151738.97;;;22.67;75.05
6034;BME280;3045;43.226;27.858;2022-10-17T07:25:26;151870.41;;;23.19;72.74
6034;BME280;3045;43.226;27.858;2022-10-17T07:27:54;151915.09;;;23.37;71.42
6034;BME280;3045;43.226;27.858;2022-10-17T07:30:21;152088.72;;;24.06;69.76
6034;BME280;3045;43.226;27.858;2022-10-17T07:32:51;152268.81;;;24.77;65.74
6034;BME280;3045;43.226;27.858;2022-10-17T07:35:19;151964.91;;;23.57;68.58
6034;BME280;3045;43.226;27.858;2022-10-17T07:37:46;151911.25;;;23.36;71.21
6034;BME280;3045;43.226;27.858;2022-10-17T07:40:14;152018.50;;;23.78;69.87
6034;BME280;3045;43.226;27.858;2022-10-17T07:42:41;151782.38;;;22.85;73.70
6034;BME280;3045;43.226;27.858;2022-10-17T07:45:09;151940.63;;;23.47;72.08
6034;BME280;3045;43.226;27.858;2022-10-17T07:47:36;152105.31;;;24.12;68.97
6034;BME280;3045;43.226;27.858;2022-10-17T07:50:03;152042.75;;;23.88;67.90
6034;BME280;3045;43.226;27.858;2022-10-17T07:52:30;152171.75;;;24.39;64.83
6034;BME280;3045;43.226;27.858;2022-10-17T07:54:57;152192.19;;;24.47;64.33
6034;BME280;3045;43.226;27.858;2022-10-17T07:57:26;152037.63;;;23.86;67.46
6034;BME280;3045;43.226;27.858;2022-10-17T07:59:53;152107.88;;;24.13;67.87
6034;BME280;3045;43.226;27.858;2022-10-17T08:02:21;152056.75;;;23.93;66.92
6034;BME280;3045;43.226;27.858;2022-10-17T08:04:48;151991.72;;;23.67;68.03
6034;BME280;3045;43.226;27.858;2022-10-17T08:07:15;151796.44;;;22.90;71.84
6034;BME280;3045;43.226;27.858;2022-10-17T08:09:44;151714.72;;;22.58;74.59
6034;BME280;3045;43.226;27.858;2022-10-17T08:12:12;151924.00;;;23.41;71.98
6034;BME280;3045;43.226;27.858;2022-10-17T08:14:41;152256.03;;;24.72;65.60
6034;BME280;3045;43.226;27.858;2022-10-17T08:17:09;152089.97;;;24.06;69.17
6034;BME280;3045;43.226;27.858;2022-10-17T08:19:37;152049.13;;;23.90;68.16
6034;BME280;3045;43.226;27.858;2022-10-17T08:22:05;151893.41;;;23.29;70.66
6034;BME280;3045;43.226;27.858;2022-10-17T08:24:33;152018.50;;;23.78;70.00
6034;BME280;3045;43.226;27.858;2022-10-17T08:27:00;152279.03;;;24.81;65.22
6034;BME280;3045;43.226;27.858;2022-10-17T08:29:28;152015.94;;;23.77;65.20
6034;BME280;3045;43.226;27.858;2022-10-17T08:31:58;151659.94;;;22.36;74.93
6034;BME280;3045;43.226;27.858;2022-10-17T08:34:25;151529.81;;;21.84;79.03
6034;BME280;3045;43.226;27.858;2022-10-17T08:36:52;151605.09;;;22.14;81.40
6034;BME280;3045;43.226;27.858;2022-10-17T08:39:19;151541.31;;;21.89;81.29
6034;BME280;3045;43.226;27.858;2022-10-17T08:42:04;151492.84;;;21.70;87.83
6034;BME280;3045;43.226;27.858;2022-10-17T08:44:48;151999.38;;;23.71;76.54
6034;BME280;3045;43.226;27.858;2022-10-17T08:47:23;152244.53;;;24.68;66.75
6034;BME280;3045;43.226;27.858;2022-10-17T08:49:55;151815.56;;;22.98;72.19
6034;BME280;3045;43.226;27.858;2022-10-17T08:52:31;151587.22;;;22.07;78.12
6034;BME280;3045;43.226;27.858;2022-10-17T08:55:00;151732.59;;;22.65;76.47
6034;BME280;3045;43.226;27.858;2022-10-17T08:57:28;151591.06;;;22.09;79.70
6034;BME280;3045;43.226;27.858;2022-10-17T08:59:55;151926.56;;;23.42;74.23
6034;BME280;3045;43.226;27.858;2022-10-17T09:02:40;151878.06;;;23.22;72.43
6034;BME280;3045;43.226;27.858;2022-10-17T09:05:33;151947.03;;;23.50;71.94
6034;BME280;3045;43.226;27.858;2022-10-17T09:08:13;152566.63;;;25.95;62.67
6034;BME280;3045;43.226;27.858;2022-10-17T09:10:51;152498.84;;;25.68;58.84
6034;BME280;3045;43.226;27.858;2022-10-17T09:13:35;151684.13;;;22.46;69.86
6034;BME280;3045;43.226;27.858;2022-10-17T09:16:13;151754.34;;;22.73;71.50
6034;BME280;3045;43.226;27.858;2022-10-17T09:18:48;151281.28;;;20.86;81.66
6034;BME280;3045;43.226;27.858;2022-10-17T09:21:22;151506.88;;;21.75;78.89
6034;BME280;3045;43.226;27.858;2022-10-17T09:23:53;151732.59;;;22.65;74.99
6034;BME280;3045;43.226;27.858;2022-10-17T09:26:22;151894.69;;;23.29;69.79
6034;BME280;3045;43.226;27.858;2022-10-17T09:28:52;151851.28;;;23.12;71.34
6034;BME280;3045;43.226;27.858;2022-10-17T09:31:23;151924.00;;;23.41;71.29
6034;BME280;3045;43.226;27.858;2022-10-17T09:33:54;152184.53;;;24.44;66.58
6034;BME280;3045;43.226;27.858;2022-10-17T09:36:25;151528.53;;;21.84;77.51
6034;BME280;3045;43.226;27.858;2022-10-17T09:38:56;151508.16;;;21.76;80.45
6034;BME280;3045;43.226;27.858;2022-10-17T09:41:33;151602.53;;;22.13;80.75
6034;BME280;3045;43.226;27.858;2022-10-17T09:44:14;151939.34;;;23.47;73.55
6034;BME280;3045;43.226;27.858;2022-10-17T09:46:49;152037.63;;;23.86;69.28
6034;BME280;3045;43.226;27.858;2022-10-17T09:49:25;151755.63;;;22.74;73.13
6034;BME280;3045;43.226;27.858;2022-10-17T09:51:54;151568.09;;;22.00;77.23
6034;BME280;3045;43.226;27.858;2022-10-17T09:54:25;151867.84;;;23.18;77.05
6034;BME280;3045;43.226;27.858;2022-10-17T09:56:59;152174.31;;;24.40;66.01
6034;BME280;3045;43.226;27.858;2022-10-17T09:59:32;152254.75;;;24.72;62.26
6034;BME280;3045;43.226;27.858;2022-10-17T10:02:07;152334.00;;;25.03;62.73
6034;BME280;3045;43.226;27.858;2022-10-17T10:04:36;152262.41;;;24.75;62.83
6034;BME280;3045;43.226;27.858;2022-10-17T10:07:17;152133.44;;;24.24;63.19
6034;BME280;3045;43.226;27.858;2022-10-17T10:09:46;152118.13;;;24.18;66.54
6034;BME280;3045;43.226;27.858;2022-10-17T10:12:17;152171.75;;;24.39;64.68
6034;BME280;3045;43.226;27.858;2022-10-17T10:14:45;152158.97;;;24.34;65.55
6034;BME280;3045;43.226;27.858;2022-10-17T10:17:26;152197.25;;;24.49;65.26
6034;BME280;3045;43.226;27.858;2022-10-17T10:19:55;152033.84;;;23.84;66.56
6034;BME280;3045;43.226;27.858;2022-10-17T10:22:22;151934.28;;;23.45;69.54
6034;BME280;3045;43.226;27.858;2022-10-17T10:25:09;152055.53;;;23.93;67.66
6034;BME280;3045;43.226;27.858;2022-10-17T10:27:39;152003.16;;;23.72;66.65
6034;BME280;3045;43.226;27.858;2022-10-17T10:30:16;152088.72;;;24.06;64.48
6034;BME280;3045;43.226;27.858;2022-10-17T10:32:48;152111.72;;;24.15;61.28
6034;BME280;3045;43.226;27.858;2022-10-17T10:35:20;151842.38;;;23.08;64.63
6034;BME280;3045;43.226;27.858;2022-10-17T10:37:49;152003.16;;;23.72;65.68
6034;BME280;3045;43.226;27.858;2022-10-17T10:40:20;152452.84;;;25.50;60.18
6034;BME280;3045;43.226;27.858;2022-10-17T10:42:50;152552.53;;;25.89;56.77
6034;BME280;3045;43.226;27.858;2022-10-17T10:45:20;152365.94;;;25.16;58.06
6034;BME280;3045;43.226;27.858;2022-10-17T10:47:49;151990.44;;;23.67;61.08
6034;BME280;3045;43.226;27.858;2022-10-17T10:50:25;151482.66;;;21.66;69.31
6034;BME280;3045;43.226;27.858;2022-10-17T10:53:02;151441.88;;;21.50;72.81
6034;BME280;3045;43.226;27.858;2022-10-17T10:55:35;151596.13;;;22.11;70.66
6034;BME280;3045;43.226;27.858;2022-10-17T10:58:22;152282.84;;;24.83;63.23
6034;BME280;3045;43.226;27.858;2022-10-17T11:00:52;151972.53;;;23.60;61.72
6034;BME280;3045;43.226;27.858;2022-10-17T11:03:26;151898.47;;;23.31;63.61
6034;BME280;3045;43.226;27.858;2022-10-17T11:06:01;151450.78;;;21.53;70.18
6034;BME280;3045;43.226;27.858;2022-10-17T11:08:35;151527.25;;;21.83;72.98
6034;BME280;3045;43.226;27.858;2022-10-17T11:11:12;151526.00;;;21.83;72.87
6034;BME280;3045;43.226;27.858;2022-10-17T11:13:45;151320.75;;;21.02;77.43
6034;BME280;3045;43.226;27.858;2022-10-17T11:16:23;151268.53;;;20.81;80.38
6034;BME280;3045;43.226;27.858;2022-10-17T11:18:58;151207.41;;;20.57;83.87
6034;BME280;3045;43.226;27.858;2022-10-17T11:21:39;151265.97;;;20.80;84.26
6034;BME280;3045;43.226;27.858;2022-10-17T11:24:13;151277.44;;;20.84;83.91
6034;BME280;3045;43.226;27.858;2022-10-17T11:26:52;151209.97;;;20.58;84.33
6034;BME280;3045;43.226;27.858;2022-10-17T11:29:25;151171.72;;;20.42;86.18
6034;BME280;3045;43.226;27.858;2022-10-17T11:31:55;151220.16;;;20.62;86.77
6034;BME280;3045;43.226;27.858;2022-10-17T11:34:26;151156.47;;;20.36;86.96
6034;BME280;3045;43.226;27.858;2022-10-17T11:37:03;151234.13;;;20.67;85.86
6034;BME280;3045;43.226;27.858;2022-10-17T11:39:37;151306.78;;;20.96;82.36
6034;BME280;3045;43.226;27.858;2022-10-17T11:42:09;151387.06;;;21.28;83.99
6034;BME280;3045;43.226;27.858;2022-10-17T11:44:39;151448.22;;;21.52;80.30
6034;BME280;3045;43.226;27.858;2022-10-17T11:47:13;151462.25;;;21.58;75.64
6034;BME280;3045;43.226;27.858;2022-10-17T11:49:48;151344.97;;;21.11;77.01
6034;BME280;3045;43.226;27.858;2022-10-17T11:52:27;151369.25;;;21.21;78.94
6034;BME280;3045;43.226;27.858;2022-10-17T11:55:00;151301.66;;;20.94;76.95
6034;BME280;3045;43.226;27.858;2022-10-17T11:57:45;151248.16;;;20.73;77.44
6034;BME280;3045;43.226;27.858;2022-10-17T12:00:30;151174.28;;;20.43;79.52
6034;BME280;3045;43.226;27.858;2022-10-17T12:03:12;151164.09;;;20.39;81.25
6034;BME280;3045;43.226;27.858;2022-10-17T12:05:46;151123.31;;;20.23;77.71
6034;BME280;3045;43.226;27.858;2022-10-17T12:08:22;151232.84;;;20.67;78.04
6034;BME280;3045;43.226;27.858;2022-10-17T12:10:55;151215.03;;;20.60;81.90
6034;BME280;3045;43.226;27.858;2022-10-17T12:13:46;151245.59;;;20.72;84.23
6034;BME280;3045;43.226;27.858;2022-10-17T12:16:43;151179.38;;;20.45;84.80
6034;BME280;3045;43.226;27.858;2022-10-17T12:19:28;151187.03;;;20.48;87.24
6034;BME280;3045;43.226;27.858;2022-10-17T12:22:03;151100.41;;;20.14;88.51
6034;BME280;3045;43.226;27.858;2022-10-17T12:24:43;151097.84;;;20.13;85.90
6034;BME280;3045;43.226;27.858;2022-10-17T12:27:33;151096.56;;;20.13;86.61
6034;BME280;3045;43.226;27.858;2022-10-17T12:30:04;151109.31;;;20.18;82.17
6034;BME280;3045;43.226;27.858;2022-10-17T12:32:32;151021.44;;;19.83;87.43
6034;BME280;3045;43.226;27.858;2022-10-17T12:34:59;150999.81;;;19.74;88.74
6034;BME280;3045;43.226;27.858;2022-10-17T12:38:00;151077.47;;;20.05;90.33
6034;BME280;3045;43.226;27.858;2022-10-17T12:43:53;151118.22;;;20.21;84.32
6034;BME280;3045;43.226;27.858;2022-10-17T12:46:42;151077.47;;;20.05;83.30
6034;BME280;3045;43.226;27.858;2022-10-17T12:49:22;151106.75;;;20.17;81.70
6034;BME280;3045;43.226;27.858;2022-10-17T12:55:11;151064.72;;;20.00;86.41
6034;BME280;3045;43.226;27.858;2022-10-17T12:57:47;151072.34;;;20.03;88.35
6034;BME280;3045;43.226;27.858;2022-10-17T13:00:22;151083.81;;;20.07;88.66
6034;BME280;3045;43.226;27.858;2022-10-17T13:02:54;151110.59;;;20.18;nan
6034;BME280;3045;43.226;27.858;2022-10-17T13:05:26;151074.91;;;20.04;83.81
6034;BME280;3045;43.226;27.858;2022-10-17T13:08:00;151086.38;;;20.08;84.54
6034;BME280;3045;43.226;27.858;2022-10-17T13:10:29;151108.03;;;20.17;86.53
6034;BME280;3045;43.226;27.858;2022-10-17T13:13:05;151113.13;;;20.19;86.60
6034;BME280;3045;43.226;27.858;2022-10-17T13:15:33;151081.31;;;20.06;95.45
6034;BME280;3045;43.226;27.858;2022-10-17T13:18:01;151115.66;;;20.20;99.49
6034;BME280;3045;43.226;27.858;2022-10-17T13:20:30;151031.63;;;19.87;100.00
6034;BME280;3045;43.226;27.858;2022-10-17T13:22:58;151057.09;;;19.97;100.00
6034;BME280;3045;43.226;27.858;2022-10-17T13:25:26;151077.47;;;20.05;100.00
6034;BME280;3045;43.226;27.858;2022-10-17T13:28:06;151105.47;;;20.16;100.00